Astra — PB4187 — position and weather

sailwx.info

Track history (hours):
 
Tides and Currents Weather Stations Pressure Air Temp Water Temp Dewpoint Dewpoint Depression Visibility Wind Speed Wind Dir Waves Ship Positions

Astra

Last reported at 2016-Apr-30 14:33 UTC. Time now 2016-Apr-30 15:06 UTC.
Position N 51°38' E 006°37'.

Length 110 m.

Type: Tanker. MMSI: 244650752.

Date/timePositionNaut miles runAvg speedWind from/ knotsBaromVisibWave heightAir tempDewpointWater temp
2016-Apr-30 14:33N 51°38' E 006°37'0 0.0
2016-Apr-30 13:33N 51°38' E 006°37'0 0.0
2016-Apr-30 12:32N 51°38' E 006°37'0 0.0
2016-Apr-30 11:33N 51°38' E 006°37'0 0.0
2016-Apr-30 10:33N 51°38' E 006°37'0 0.0
2016-Apr-30 09:33N 51°38' E 006°37'0 0.0
2016-Apr-30 08:33N 51°38' E 006°37'0 0.0
2016-Apr-30 07:33N 51°38' E 006°37'0 0.0
2016-Apr-30 06:33N 51°38' E 006°37'0 0.0
2016-Apr-30 05:33N 51°38' E 006°37'3 3.5
2016-Apr-30 04:33N 51°35' E 006°36'7 7.4
2016-Apr-30 03:33N 51°28' E 006°42'8 7.9
2016-Apr-30 02:33N 51°20' E 006°42'8 7.5
2016-Apr-30 01:33N 51°13' E 006°44'18 8.2
2016-Apr-29 23:20N 50°58' E 006°59'6 7.9
2016-Apr-29 22:33N 50°51' E 007°01'9 9.6
2016-Apr-29 21:33N 50°43' E 007°08'96 8.5
2016-Apr-29 10:09N 49°22' E 008°30'5 8.8
2016-Apr-29 09:33N 49°17' E 008°29'1111.2
2016-Apr-29 08:33N 49°07' E 008°22'3 2.9
2016-Apr-29 07:33N 49°04' E 008°20'4 3.9
2016-Apr-29 06:33N 49°08' E 008°22'5 5.4
2016-Apr-29 05:33N 49°13' E 008°23'5 5.0
2016-Apr-29 04:33N 49°17' E 008°28'4 3.6
2016-Apr-29 03:33N 49°21' E 008°29'2 0.2
2016-Apr-28 14:33N 49°22' E 008°30'9 8.7
2016-Apr-28 13:33N 49°15' E 008°24'1110.7
2016-Apr-28 12:33N 49°04' E 008°20'0 0.2
2016-Apr-28 11:33N 49°04' E 008°20'0 0.0
2016-Apr-28 10:33N 49°04' E 008°20'0 0.0
2016-Apr-28 09:33N 49°04' E 008°20'0 0.0
2016-Apr-28 08:33N 49°04' E 008°20'0 0.0
2016-Apr-28 07:33N 49°04' E 008°20'0 0.0
2016-Apr-28 06:33N 49°04' E 008°20'0 0.0
2016-Apr-28 05:33N 49°04' E 008°20'0 0.0
2016-Apr-28 04:33N 49°04' E 008°20'0 0.3
2016-Apr-28 03:33N 49°04' E 008°20'0 0.0
2016-Apr-28 02:33N 49°04' E 008°20'0 0.0
2016-Apr-28 01:33N 49°04' E 008°20'0 0.0
2016-Apr-28 00:33N 49°04' E 008°20'0 0.0
2016-Apr-27 23:33N 49°04' E 008°20'0 0.0
2016-Apr-27 22:33N 49°04' E 008°20'0 0.0
2016-Apr-27 21:33N 49°04' E 008°20'0 0.0
2016-Apr-27 20:33N 49°04' E 008°20'0 0.0
2016-Apr-27 19:33N 49°04' E 008°20'2 2.0
2016-Apr-27 18:33N 49°03' E 008°18'6 0.2
2016-Apr-26 04:24N 48°58' E 008°13'3 3.9
2016-Apr-26 03:33N 48°60' E 008°17'4 4.0
2016-Apr-26 02:33N 49°03' E 008°19'4 3.9
2016-Apr-26 01:33N 49°07' E 008°22'4 3.9
2016-Apr-26 00:33N 49°11' E 008°23'4 4.0
2016-Apr-25 23:33N 49°15' E 008°24'5 4.3
2016-Apr-25 22:27N 49°18' E 008°29'98 3.6
2016-Apr-24 19:28N 50°41' E 007°11'4 4.9
2016-Apr-24 18:33N 50°45' E 007°06'5 4.8
2016-Apr-24 17:27N 50°49' E 007°01'2 2.4
2016-Apr-24 16:29N 50°51' E 006°59'0 0.0
2016-Apr-24 15:32N 50°51' E 006°59'0 0.0
2016-Apr-24 14:33N 50°51' E 006°59'0 0.0
2016-Apr-24 13:33N 50°51' E 006°59'0 0.0
2016-Apr-24 12:33N 50°51' E 006°59'0 0.0
2016-Apr-24 11:32N 50°51' E 006°59'0 0.0
2016-Apr-24 10:33N 50°51' E 006°59'0 0.0
2016-Apr-24 09:33N 50°51' E 006°59'0 0.0
2016-Apr-24 08:33N 50°51' E 006°59'0 0.0
2016-Apr-24 07:33N 50°51' E 006°59'0 0.0
2016-Apr-24 06:33N 50°51' E 006°59'0 0.0
2016-Apr-24 05:33N 50°51' E 006°59'0 0.1
2016-Apr-24 04:33N 50°51' E 006°59'1 1.2
2016-Apr-24 03:32N 50°50' E 006°59'0 0.0
2016-Apr-24 02:33N 50°50' E 006°59'0 0.0
2016-Apr-24 01:28N 50°50' E 006°59'0 0.0
2016-Apr-24 00:22N 50°50' E 006°59'1 1.7
2016-Apr-23 23:33N 50°49' E 007°01'105 8.8
2016-Apr-23 11:33N 49°20' E 008°28'9 9.5
2016-Apr-23 10:32N 49°12' E 008°23'1211.9
2016-Apr-23 09:33N 49°00' E 008°18'15 7.0
2016-Apr-23 07:27N 48°48' E 008°05'10 0.3
2016-Apr-22 01:33N 48°57' E 008°12'4 3.7
2016-Apr-22 00:33N 48°59' E 008°16'4 3.8
2016-Apr-21 23:33N 49°03' E 008°18'4 4.0
2016-Apr-21 22:33N 49°06' E 008°22'4 3.9
2016-Apr-21 21:33N 49°10' E 008°22'4 3.8
2016-Apr-21 20:33N 49°14' E 008°23'4 4.2
2016-Apr-21 19:31N 49°17' E 008°28'3 2.9
2016-Apr-21 18:33N 49°20' E 008°27'  
Track history (hours):
 
Tides and Currents Weather Stations Pressure Air Temp Water Temp Dewpoint Dewpoint Depression Visibility Wind Speed Wind Dir Waves Ship Positions

Astra

Last reported at 2016-Apr-30 14:33 UTC. Time now 2016-Apr-30 15:06 UTC.
Position N 51°38' E 006°37'.

Length 110 m.

Type: Tanker. MMSI: 244650752.

Date/timePositionNaut miles runAvg speedWind from/ knotsBaromVisibWave heightAir tempDewpointWater temp
2016-Apr-30 14:33N 51°38' E 006°37'0 0.0
2016-Apr-30 13:33N 51°38' E 006°37'0 0.0
2016-Apr-30 12:32N 51°38' E 006°37'0 0.0
2016-Apr-30 11:33N 51°38' E 006°37'0 0.0
2016-Apr-30 10:33N 51°38' E 006°37'0 0.0
2016-Apr-30 09:33N 51°38' E 006°37'0 0.0
2016-Apr-30 08:33N 51°38' E 006°37'0 0.0
2016-Apr-30 07:33N 51°38' E 006°37'0 0.0
2016-Apr-30 06:33N 51°38' E 006°37'0 0.0
2016-Apr-30 05:33N 51°38' E 006°37'3 3.5
2016-Apr-30 04:33N 51°35' E 006°36'7 7.4
2016-Apr-30 03:33N 51°28' E 006°42'8 7.9
2016-Apr-30 02:33N 51°20' E 006°42'8 7.5
2016-Apr-30 01:33N 51°13' E 006°44'18 8.2
2016-Apr-29 23:20N 50°58' E 006°59'6 7.9
2016-Apr-29 22:33N 50°51' E 007°01'9 9.6
2016-Apr-29 21:33N 50°43' E 007°08'96 8.5
2016-Apr-29 10:09N 49°22' E 008°30'5 8.8
2016-Apr-29 09:33N 49°17' E 008°29'1111.2
2016-Apr-29 08:33N 49°07' E 008°22'3 2.9
2016-Apr-29 07:33N 49°04' E 008°20'4 3.9
2016-Apr-29 06:33N 49°08' E 008°22'5 5.4
2016-Apr-29 05:33N 49°13' E 008°23'5 5.0
2016-Apr-29 04:33N 49°17' E 008°28'4 3.6
2016-Apr-29 03:33N 49°21' E 008°29'2 0.2
2016-Apr-28 14:33N 49°22' E 008°30'9 8.7
2016-Apr-28 13:33N 49°15' E 008°24'1110.7
2016-Apr-28 12:33N 49°04' E 008°20'0 0.2
2016-Apr-28 11:33N 49°04' E 008°20'0 0.0
2016-Apr-28 10:33N 49°04' E 008°20'0 0.0
2016-Apr-28 09:33N 49°04' E 008°20'0 0.0
2016-Apr-28 08:33N 49°04' E 008°20'0 0.0
2016-Apr-28 07:33N 49°04' E 008°20'0 0.0
2016-Apr-28 06:33N 49°04' E 008°20'0 0.0
2016-Apr-28 05:33N 49°04' E 008°20'0 0.0
2016-Apr-28 04:33N 49°04' E 008°20'0 0.3
2016-Apr-28 03:33N 49°04' E 008°20'0 0.0
2016-Apr-28 02:33N 49°04' E 008°20'0 0.0
2016-Apr-28 01:33N 49°04' E 008°20'0 0.0
2016-Apr-28 00:33N 49°04' E 008°20'0 0.0
2016-Apr-27 23:33N 49°04' E 008°20'0 0.0
2016-Apr-27 22:33N 49°04' E 008°20'0 0.0
2016-Apr-27 21:33N 49°04' E 008°20'0 0.0
2016-Apr-27 20:33N 49°04' E 008°20'0 0.0
2016-Apr-27 19:33N 49°04' E 008°20'2 2.0
2016-Apr-27 18:33N 49°03' E 008°18'6 0.2
2016-Apr-26 04:24N 48°58' E 008°13'3 3.9
2016-Apr-26 03:33N 48°60' E 008°17'4 4.0
2016-Apr-26 02:33N 49°03' E 008°19'4 3.9
2016-Apr-26 01:33N 49°07' E 008°22'4 3.9
2016-Apr-26 00:33N 49°11' E 008°23'4 4.0
2016-Apr-25 23:33N 49°15' E 008°24'5 4.3
2016-Apr-25 22:27N 49°18' E 008°29'98 3.6
2016-Apr-24 19:28N 50°41' E 007°11'4 4.9
2016-Apr-24 18:33N 50°45' E 007°06'5 4.8
2016-Apr-24 17:27N 50°49' E 007°01'2 2.4
2016-Apr-24 16:29N 50°51' E 006°59'0 0.0
2016-Apr-24 15:32N 50°51' E 006°59'0 0.0
2016-Apr-24 14:33N 50°51' E 006°59'0 0.0
2016-Apr-24 13:33N 50°51' E 006°59'0 0.0
2016-Apr-24 12:33N 50°51' E 006°59'0 0.0
2016-Apr-24 11:32N 50°51' E 006°59'0 0.0
2016-Apr-24 10:33N 50°51' E 006°59'0 0.0
2016-Apr-24 09:33N 50°51' E 006°59'0 0.0
2016-Apr-24 08:33N 50°51' E 006°59'0 0.0
2016-Apr-24 07:33N 50°51' E 006°59'0 0.0
2016-Apr-24 06:33N 50°51' E 006°59'0 0.0
2016-Apr-24 05:33N 50°51' E 006°59'0 0.1
2016-Apr-24 04:33N 50°51' E 006°59'1 1.2
2016-Apr-24 03:32N 50°50' E 006°59'0 0.0
2016-Apr-24 02:33N 50°50' E 006°59'0 0.0
2016-Apr-24 01:28N 50°50' E 006°59'0 0.0
2016-Apr-24 00:22N 50°50' E 006°59'1 1.7
2016-Apr-23 23:33N 50°49' E 007°01'105 8.8
2016-Apr-23 11:33N 49°20' E 008°28'9 9.5
2016-Apr-23 10:32N 49°12' E 008°23'1211.9
2016-Apr-23 09:33N 49°00' E 008°18'15 7.0
2016-Apr-23 07:27N 48°48' E 008°05'10 0.3
2016-Apr-22 01:33N 48°57' E 008°12'4 3.7
2016-Apr-22 00:33N 48°59' E 008°16'4 3.8
2016-Apr-21 23:33N 49°03' E 008°18'4 4.0
2016-Apr-21 22:33N 49°06' E 008°22'4 3.9
2016-Apr-21 21:33N 49°10' E 008°22'4 3.8
2016-Apr-21 20:33N 49°14' E 008°23'4 4.2
2016-Apr-21 19:31N 49°17' E 008°28'3 2.9
2016-Apr-21 18:33N 49°20' E 008°27'  

Dump ship's entire track history